sensor_id;sensor_type;location;lat;lon;timestamp;P1;durP1;ratioP1;P2;durP2;ratioP2
29700;SDS011;57917;51.380;-0.176;2023-04-23T00:05:26;5.13;;;1.73;;
29700;SDS011;57917;51.380;-0.176;2023-04-23T00:11:16;6.43;;;1.77;;
29700;SDS011;57917;51.380;-0.176;2023-04-23T00:17:02;7.03;;;1.63;;
29700;SDS011;57917;51.380;-0.176;2023-04-23T00:22:49;7.15;;;1.20;;
29700;SDS011;57917;51.380;-0.176;2023-04-23T00:28:36;12.77;;;1.65;;
29700;SDS011;57917;51.380;-0.176;2023-04-23T00:34:23;9.02;;;0.95;;
29700;SDS011;57917;51.380;-0.176;2023-04-23T00:40:10;5.55;;;1.30;;
29700;SDS011;57917;51.380;-0.176;2023-04-23T00:46:00;5.97;;;1.40;;
29700;SDS011;57917;51.380;-0.176;2023-04-23T00:51:48;7.82;;;1.15;;
29700;SDS011;57917;51.380;-0.176;2023-04-23T00:57:35;7.95;;;1.17;;
29700;SDS011;57917;51.380;-0.176;2023-04-23T01:03:23;3.50;;;1.10;;
29700;SDS011;57917;51.380;-0.176;2023-04-23T01:15:03;9.48;;;0.90;;
29700;SDS011;57917;51.380;-0.176;2023-04-23T01:20:55;25.50;;;1.58;;
29700;SDS011;57917;51.380;-0.176;2023-04-23T01:26:42;5.35;;;1.23;;
29700;SDS011;57917;51.380;-0.176;2023-04-23T01:32:33;6.85;;;0.80;;
29700;SDS011;57917;51.380;-0.176;2023-04-23T01:38:20;0.63;;;0.43;;
29700;SDS011;57917;51.380;-0.176;2023-04-23T01:44:10;0.65;;;0.40;;
29700;SDS011;57917;51.380;-0.176;2023-04-23T01:49:58;2.33;;;0.30;;
29700;SDS011;57917;51.380;-0.176;2023-04-23T01:55:46;1.35;;;0.50;;
29700;SDS011;57917;51.380;-0.176;2023-04-23T02:01:41;1.48;;;0.57;;
29700;SDS011;57917;51.380;-0.176;2023-04-23T02:07:30;2.47;;;0.75;;
29700;SDS011;57917;51.380;-0.176;2023-04-23T02:13:18;3.10;;;1.20;;
29700;SDS011;57917;51.380;-0.176;2023-04-23T02:19:05;3.42;;;0.88;;
29700;SDS011;57917;51.380;-0.176;2023-04-23T02:24:52;8.05;;;1.50;;
29700;SDS011;57917;51.380;-0.176;2023-04-23T02:30:39;3.20;;;0.80;;
29700;SDS011;57917;51.380;-0.176;2023-04-23T02:36:31;10.20;;;1.10;;
29700;SDS011;57917;51.380;-0.176;2023-04-23T02:42:22;8.00;;;2.63;;
29700;SDS011;57917;51.380;-0.176;2023-04-23T02:48:10;6.63;;;1.00;;
29700;SDS011;57917;51.380;-0.176;2023-04-23T02:53:57;4.60;;;0.95;;
29700;SDS011;57917;51.380;-0.176;2023-04-23T02:59:44;5.13;;;1.02;;
29700;SDS011;57917;51.380;-0.176;2023-04-23T03:05:34;5.43;;;1.17;;
29700;SDS011;57917;51.380;-0.176;2023-04-23T03:11:21;3.83;;;1.00;;
29700;SDS011;57917;51.380;-0.176;2023-04-23T03:17:08;13.30;;;1.42;;
29700;SDS011;57917;51.380;-0.176;2023-04-23T03:22:55;8.98;;;1.52;;
29700;SDS011;57917;51.380;-0.176;2023-04-23T03:28:47;3.22;;;1.08;;
29700;SDS011;57917;51.380;-0.176;2023-04-23T03:34:43;15.60;;;1.15;;
29700;SDS011;57917;51.380;-0.176;2023-04-23T03:40:30;4.82;;;1.33;;
29700;SDS011;57917;51.380;-0.176;2023-04-23T03:46:21;6.95;;;1.08;;
29700;SDS011;57917;51.380;-0.176;2023-04-23T03:52:08;4.78;;;1.10;;
29700;SDS011;57917;51.380;-0.176;2023-04-23T03:57:58;10.00;;;1.33;;
29700;SDS011;57917;51.380;-0.176;2023-04-23T04:09:50;2.97;;;0.90;;
29700;SDS011;57917;51.380;-0.176;2023-04-23T04:15:36;3.47;;;1.00;;
29700;SDS011;57917;51.380;-0.176;2023-04-23T04:21:23;5.07;;;0.80;;
29700;SDS011;57917;51.380;-0.176;2023-04-23T04:27:10;6.30;;;1.00;;
29700;SDS011;57917;51.380;-0.176;2023-04-23T04:32:58;6.97;;;1.40;;
29700;SDS011;57917;51.380;-0.176;2023-04-23T04:38:46;8.57;;;1.10;;
29700;SDS011;57917;51.380;-0.176;2023-04-23T04:44:33;6.47;;;1.40;;
29700;SDS011;57917;51.380;-0.176;2023-04-23T04:50:23;7.68;;;1.40;;
29700;SDS011;57917;51.380;-0.176;2023-04-23T04:56:10;10.18;;;1.67;;
29700;SDS011;57917;51.380;-0.176;2023-04-23T05:01:59;5.72;;;1.40;;
29700;SDS011;57917;51.380;-0.176;2023-04-23T05:07:46;6.60;;;1.63;;
29700;SDS011;57917;51.380;-0.176;2023-04-23T05:13:39;5.85;;;1.52;;
29700;SDS011;57917;51.380;-0.176;2023-04-23T05:19:27;8.68;;;0.95;;
29700;SDS011;57917;51.380;-0.176;2023-04-23T05:25:17;4.82;;;1.52;;
29700;SDS011;57917;51.380;-0.176;2023-04-23T05:31:07;2.92;;;0.75;;
29700;SDS011;57917;51.380;-0.176;2023-04-23T05:36:54;4.63;;;1.23;;
29700;SDS011;57917;51.380;-0.176;2023-04-23T05:42:41;6.55;;;0.98;;
29700;SDS011;57917;51.380;-0.176;2023-04-23T05:48:28;7.15;;;1.17;;
29700;SDS011;57917;51.380;-0.176;2023-04-23T05:54:15;1.45;;;0.88;;
29700;SDS011;57917;51.380;-0.176;2023-04-23T06:00:05;2.17;;;0.82;;
29700;SDS011;57917;51.380;-0.176;2023-04-23T06:05:58;6.03;;;1.20;;
29700;SDS011;57917;51.380;-0.176;2023-04-23T06:11:44;4.28;;;1.15;;
29700;SDS011;57917;51.380;-0.176;2023-04-23T06:17:32;16.88;;;1.90;;
29700;SDS011;57917;51.380;-0.176;2023-04-23T06:23:22;4.05;;;0.90;;
29700;SDS011;57917;51.380;-0.176;2023-04-23T06:29:10;3.20;;;1.00;;
29700;SDS011;57917;51.380;-0.176;2023-04-23T06:35:08;4.30;;;1.15;;
29700;SDS011;57917;51.380;-0.176;2023-04-23T06:40:58;6.03;;;1.75;;
29700;SDS011;57917;51.380;-0.176;2023-04-23T06:52:34;2.80;;;0.93;;
29700;SDS011;57917;51.380;-0.176;2023-04-23T06:58:21;8.25;;;1.67;;
29700;SDS011;57917;51.380;-0.176;2023-04-23T07:04:12;11.93;;;3.85;;
29700;SDS011;57917;51.380;-0.176;2023-04-23T07:10:00;6.07;;;1.50;;
29700;SDS011;57917;51.380;-0.176;2023-04-23T07:15:49;5.68;;;0.95;;
29700;SDS011;57917;51.380;-0.176;2023-04-23T07:21:36;8.80;;;1.45;;
29700;SDS011;57917;51.380;-0.176;2023-04-23T07:27:23;4.97;;;0.90;;
29700;SDS011;57917;51.380;-0.176;2023-04-23T07:33:10;6.38;;;2.53;;
29700;SDS011;57917;51.380;-0.176;2023-04-23T07:38:57;8.23;;;2.70;;
29700;SDS011;57917;51.380;-0.176;2023-04-23T07:44:44;3.10;;;0.88;;
29700;SDS011;57917;51.380;-0.176;2023-04-23T07:50:31;5.32;;;0.93;;
29700;SDS011;57917;51.380;-0.176;2023-04-23T07:56:20;3.53;;;1.10;;
29700;SDS011;57917;51.380;-0.176;2023-04-23T08:02:12;8.88;;;2.85;;
29700;SDS011;57917;51.380;-0.176;2023-04-23T08:13:49;1.95;;;0.80;;
29700;SDS011;57917;51.380;-0.176;2023-04-23T08:19:39;1.27;;;0.75;;
29700;SDS011;57917;51.380;-0.176;2023-04-23T08:25:30;4.28;;;0.80;;
29700;SDS011;57917;51.380;-0.176;2023-04-23T08:31:18;1.83;;;0.73;;
29700;SDS011;57917;51.380;-0.176;2023-04-23T08:37:12;9.88;;;1.20;;
29700;SDS011;57917;51.380;-0.176;2023-04-23T08:43:19;4.45;;;0.70;;
29700;SDS011;57917;51.380;-0.176;2023-04-23T09:05:26;3.17;;;0.82;;
29700;SDS011;57917;51.380;-0.176;2023-04-23T09:11:26;2.25;;;0.47;;
29700;SDS011;57917;51.380;-0.176;2023-04-23T09:17:55;2.50;;;0.93;;
29700;SDS011;57917;51.380;-0.176;2023-04-23T09:39:38;4.47;;;1.00;;
29700;SDS011;57917;51.380;-0.176;2023-04-23T09:45:26;1.98;;;0.70;;
29700;SDS011;57917;51.380;-0.176;2023-04-23T09:51:24;5.00;;;0.77;;
29700;SDS011;57917;51.380;-0.176;2023-04-23T10:04:36;5.63;;;1.17;;
29700;SDS011;57917;51.380;-0.176;2023-04-23T10:10:26;2.22;;;0.80;;
29700;SDS011;57917;51.380;-0.176;2023-04-23T10:16:13;1.75;;;0.88;;
29700;SDS011;57917;51.380;-0.176;2023-04-23T10:22:10;3.28;;;1.00;;
29700;SDS011;57917;51.380;-0.176;2023-04-23T10:28:05;1.30;;;0.70;;
29700;SDS011;57917;51.380;-0.176;2023-04-23T10:33:54;2.80;;;1.00;;
29700;SDS011;57917;51.380;-0.176;2023-04-23T10:40:06;2.22;;;0.80;;
29700;SDS011;57917;51.380;-0.176;2023-04-23T10:45:59;1.40;;;0.93;;
29700;SDS011;57917;51.380;-0.176;2023-04-23T10:51:47;1.95;;;1.02;;
29700;SDS011;57917;51.380;-0.176;2023-04-23T11:03:47;1.38;;;1.08;;
29700;SDS011;57917;51.380;-0.176;2023-04-23T11:09:40;1.88;;;0.63;;
29700;SDS011;57917;51.380;-0.176;2023-04-23T11:15:34;0.80;;;0.60;;
29700;SDS011;57917;51.380;-0.176;2023-04-23T11:28:17;2.47;;;0.90;;
29700;SDS011;57917;51.380;-0.176;2023-04-23T11:34:17;1.10;;;0.73;;
29700;SDS011;57917;51.380;-0.176;2023-04-23T11:40:06;1.70;;;0.90;;
29700;SDS011;57917;51.380;-0.176;2023-04-23T11:45:56;1.98;;;0.90;;
29700;SDS011;57917;51.380;-0.176;2023-04-23T11:52:01;2.78;;;0.70;;
29700;SDS011;57917;51.380;-0.176;2023-04-23T11:57:57;5.13;;;0.90;;
29700;SDS011;57917;51.380;-0.176;2023-04-23T12:03:47;1.25;;;0.90;;
29700;SDS011;57917;51.380;-0.176;2023-04-23T12:09:38;0.75;;;0.65;;
29700;SDS011;57917;51.380;-0.176;2023-04-23T12:15:26;2.47;;;0.90;;
29700;SDS011;57917;51.380;-0.176;2023-04-23T12:21:16;0.80;;;0.80;;
29700;SDS011;57917;51.380;-0.176;2023-04-23T12:27:13;1.00;;;0.90;;
29700;SDS011;57917;51.380;-0.176;2023-04-23T12:33:01;2.08;;;0.95;;
29700;SDS011;57917;51.380;-0.176;2023-04-23T12:38:49;2.85;;;1.00;;
29700;SDS011;57917;51.380;-0.176;2023-04-23T12:44:37;3.35;;;1.00;;
29700;SDS011;57917;51.380;-0.176;2023-04-23T12:50:24;1.52;;;0.77;;
29700;SDS011;57917;51.380;-0.176;2023-04-23T12:56:11;1.42;;;0.85;;
29700;SDS011;57917;51.380;-0.176;2023-04-23T13:02:02;0.57;;;0.57;;
29700;SDS011;57917;51.380;-0.176;2023-04-23T13:08:02;0.30;;;0.30;;
29700;SDS011;57917;51.380;-0.176;2023-04-23T13:13:49;1.08;;;0.70;;
29700;SDS011;57917;51.380;-0.176;2023-04-23T13:19:42;0.55;;;0.50;;
29700;SDS011;57917;51.380;-0.176;2023-04-23T13:25:30;2.28;;;0.98;;
29700;SDS011;57917;51.380;-0.176;2023-04-23T13:31:17;1.10;;;0.90;;
29700;SDS011;57917;51.380;-0.176;2023-04-23T13:37:05;1.40;;;1.15;;
29700;SDS011;57917;51.380;-0.176;2023-04-23T13:42:57;6.60;;;1.33;;
29700;SDS011;57917;51.380;-0.176;2023-04-23T13:49:02;5.68;;;1.60;;
29700;SDS011;57917;51.380;-0.176;2023-04-23T13:54:52;3.40;;;1.27;;
29700;SDS011;57917;51.380;-0.176;2023-04-23T14:01:41;1.50;;;1.00;;
29700;SDS011;57917;51.380;-0.176;2023-04-23T14:07:32;4.45;;;1.85;;
29700;SDS011;57917;51.380;-0.176;2023-04-23T14:13:22;3.88;;;1.65;;
29700;SDS011;57917;51.380;-0.176;2023-04-23T14:19:12;4.30;;;1.27;;
29700;SDS011;57917;51.380;-0.176;2023-04-23T14:25:07;2.88;;;1.58;;
29700;SDS011;57917;51.380;-0.176;2023-04-23T14:30:58;3.50;;;2.05;;
29700;SDS011;57917;51.380;-0.176;2023-04-23T14:36:46;1.80;;;1.45;;
29700;SDS011;57917;51.380;-0.176;2023-04-23T14:42:38;4.13;;;2.42;;
29700;SDS011;57917;51.380;-0.176;2023-04-23T14:48:27;4.78;;;1.90;;
29700;SDS011;57917;51.380;-0.176;2023-04-23T14:54:16;2.65;;;1.90;;
29700;SDS011;57917;51.380;-0.176;2023-04-23T15:00:04;3.58;;;2.03;;
29700;SDS011;57917;51.380;-0.176;2023-04-23T15:06:00;3.47;;;2.10;;
29700;SDS011;57917;51.380;-0.176;2023-04-23T15:11:48;10.98;;;3.13;;
29700;SDS011;57917;51.380;-0.176;2023-04-23T15:17:38;4.05;;;2.38;;
29700;SDS011;57917;51.380;-0.176;2023-04-23T15:23:26;5.63;;;2.85;;
29700;SDS011;57917;51.380;-0.176;2023-04-23T15:29:13;4.20;;;2.45;;
29700;SDS011;57917;51.380;-0.176;2023-04-23T15:35:01;4.18;;;2.45;;
29700;SDS011;57917;51.380;-0.176;2023-04-23T15:40:48;5.63;;;2.63;;
29700;SDS011;57917;51.380;-0.176;2023-04-23T15:46:35;4.63;;;2.72;;
29700;SDS011;57917;51.380;-0.176;2023-04-23T15:52:22;3.70;;;2.33;;
29700;SDS011;57917;51.380;-0.176;2023-04-23T15:58:12;5.28;;;2.58;;
29700;SDS011;57917;51.380;-0.176;2023-04-23T16:04:02;3.67;;;2.42;;
29700;SDS011;57917;51.380;-0.176;2023-04-23T16:09:52;3.42;;;2.38;;
29700;SDS011;57917;51.380;-0.176;2023-04-23T16:15:39;10.27;;;3.20;;
29700;SDS011;57917;51.380;-0.176;2023-04-23T16:21:28;4.00;;;2.50;;
29700;SDS011;57917;51.380;-0.176;2023-04-23T16:27:17;3.65;;;2.13;;
29700;SDS011;57917;51.380;-0.176;2023-04-23T16:33:04;5.38;;;2.42;;
29700;SDS011;57917;51.380;-0.176;2023-04-23T16:38:51;10.25;;;4.50;;
29700;SDS011;57917;51.380;-0.176;2023-04-23T16:44:39;8.98;;;5.22;;
29700;SDS011;57917;51.380;-0.176;2023-04-23T16:50:26;4.13;;;2.78;;
29700;SDS011;57917;51.380;-0.176;2023-04-23T16:56:15;2.92;;;1.92;;
29700;SDS011;57917;51.380;-0.176;2023-04-23T17:02:02;2.00;;;1.60;;
29700;SDS011;57917;51.380;-0.176;2023-04-23T17:07:51;2.80;;;1.92;;
29700;SDS011;57917;51.380;-0.176;2023-04-23T17:13:42;7.75;;;1.75;;
29700;SDS011;57917;51.380;-0.176;2023-04-23T17:19:29;2.75;;;1.63;;
29700;SDS011;57917;51.380;-0.176;2023-04-23T17:25:16;2.45;;;1.70;;
29700;SDS011;57917;51.380;-0.176;2023-04-23T17:31:03;4.43;;;2.25;;
29700;SDS011;57917;51.380;-0.176;2023-04-23T17:36:50;2.60;;;1.52;;
29700;SDS011;57917;51.380;-0.176;2023-04-23T17:42:37;3.58;;;1.90;;
29700;SDS011;57917;51.380;-0.176;2023-04-23T17:48:24;4.68;;;2.67;;
29700;SDS011;57917;51.380;-0.176;2023-04-23T17:54:11;3.78;;;2.42;;
29700;SDS011;57917;51.380;-0.176;2023-04-23T17:59:58;6.00;;;2.80;;
29700;SDS011;57917;51.380;-0.176;2023-04-23T18:05:57;4.40;;;2.30;;
29700;SDS011;57917;51.380;-0.176;2023-04-23T18:11:44;4.65;;;2.53;;
29700;SDS011;57917;51.380;-0.176;2023-04-23T18:17:30;5.75;;;2.63;;
29700;SDS011;57917;51.380;-0.176;2023-04-23T18:23:17;5.75;;;2.33;;
29700;SDS011;57917;51.380;-0.176;2023-04-23T18:29:09;6.28;;;2.72;;
29700;SDS011;57917;51.380;-0.176;2023-04-23T18:34:58;5.35;;;2.42;;
29700;SDS011;57917;51.380;-0.176;2023-04-23T18:40:45;4.57;;;3.08;;
29700;SDS011;57917;51.380;-0.176;2023-04-23T18:46:32;6.65;;;2.95;;
29700;SDS011;57917;51.380;-0.176;2023-04-23T18:52:22;3.80;;;2.17;;
29700;SDS011;57917;51.380;-0.176;2023-04-23T18:58:09;4.70;;;2.20;;
29700;SDS011;57917;51.380;-0.176;2023-04-23T19:03:56;2.42;;;1.88;;
29700;SDS011;57917;51.380;-0.176;2023-04-23T19:09:43;9.95;;;1.80;;
29700;SDS011;57917;51.380;-0.176;2023-04-23T19:15:30;3.22;;;1.80;;
29700;SDS011;57917;51.380;-0.176;2023-04-23T19:21:17;3.55;;;1.80;;
29700;SDS011;57917;51.380;-0.176;2023-04-23T19:27:04;3.08;;;1.95;;
29700;SDS011;57917;51.380;-0.176;2023-04-23T19:32:52;429.15;;;22.40;;
29700;SDS011;57917;51.380;-0.176;2023-04-23T19:38:40;26.90;;;3.28;;
29700;SDS011;57917;51.380;-0.176;2023-04-23T19:44:28;5.03;;;2.13;;
29700;SDS011;57917;51.380;-0.176;2023-04-23T19:50:17;69.88;;;4.70;;
29700;SDS011;57917;51.380;-0.176;2023-04-23T19:56:25;2.65;;;1.40;;
29700;SDS011;57917;51.380;-0.176;2023-04-23T20:02:21;8.63;;;2.10;;
29700;SDS011;57917;51.380;-0.176;2023-04-23T20:08:12;5.38;;;1.98;;
29700;SDS011;57917;51.380;-0.176;2023-04-23T20:14:14;6.82;;;2.65;;
29700;SDS011;57917;51.380;-0.176;2023-04-23T20:21:27;5.85;;;2.13;;
29700;SDS011;57917;51.380;-0.176;2023-04-23T20:27:14;5.70;;;2.50;;
29700;SDS011;57917;51.380;-0.176;2023-04-23T20:33:02;5.70;;;2.95;;
29700;SDS011;57917;51.380;-0.176;2023-04-23T20:38:52;6.18;;;3.10;;
29700;SDS011;57917;51.380;-0.176;2023-04-23T20:45:08;6.50;;;3.35;;
29700;SDS011;57917;51.380;-0.176;2023-04-23T20:50:58;7.60;;;3.97;;
29700;SDS011;57917;51.380;-0.176;2023-04-23T20:57:25;7.28;;;4.20;;
29700;SDS011;57917;51.380;-0.176;2023-04-23T21:03:14;7.05;;;4.63;;
29700;SDS011;57917;51.380;-0.176;2023-04-23T21:09:22;10.45;;;5.07;;
29700;SDS011;57917;51.380;-0.176;2023-04-23T21:15:23;11.85;;;5.78;;
29700;SDS011;57917;51.380;-0.176;2023-04-23T21:21:12;12.63;;;5.50;;
29700;SDS011;57917;51.380;-0.176;2023-04-23T21:34:49;11.63;;;5.60;;
29700;SDS011;57917;51.380;-0.176;2023-04-23T21:40:36;13.77;;;7.20;;
29700;SDS011;57917;51.380;-0.176;2023-04-23T21:46:25;12.63;;;6.38;;
29700;SDS011;57917;51.380;-0.176;2023-04-23T21:52:12;15.68;;;7.45;;
29700;SDS011;57917;51.380;-0.176;2023-04-23T21:57:59;19.75;;;7.45;;
29700;SDS011;57917;51.380;-0.176;2023-04-23T22:03:49;18.33;;;8.35;;
29700;SDS011;57917;51.380;-0.176;2023-04-23T22:09:44;15.23;;;8.18;;
29700;SDS011;57917;51.380;-0.176;2023-04-23T22:15:31;21.63;;;10.23;;
29700;SDS011;57917;51.380;-0.176;2023-04-23T22:21:18;19.15;;;9.43;;
29700;SDS011;57917;51.380;-0.176;2023-04-23T22:27:06;20.63;;;10.05;;
29700;SDS011;57917;51.380;-0.176;2023-04-23T22:32:52;19.33;;;9.40;;
29700;SDS011;57917;51.380;-0.176;2023-04-23T22:45:40;27.27;;;10.63;;
29700;SDS011;57917;51.380;-0.176;2023-04-23T22:51:27;27.65;;;9.75;;
29700;SDS011;57917;51.380;-0.176;2023-04-23T22:57:19;20.38;;;9.55;;
29700;SDS011;57917;51.380;-0.176;2023-04-23T23:03:09;18.83;;;10.27;;
29700;SDS011;57917;51.380;-0.176;2023-04-23T23:08:56;20.27;;;10.40;;
29700;SDS011;57917;51.380;-0.176;2023-04-23T23:14:43;26.55;;;10.68;;
29700;SDS011;57917;51.380;-0.176;2023-04-23T23:20:30;21.95;;;10.43;;
29700;SDS011;57917;51.380;-0.176;2023-04-23T23:26:17;23.58;;;10.90;;
29700;SDS011;57917;51.380;-0.176;2023-04-23T23:32:04;22.73;;;11.70;;
29700;SDS011;57917;51.380;-0.176;2023-04-23T23:37:51;21.27;;;10.63;;
29700;SDS011;57917;51.380;-0.176;2023-04-23T23:43:38;27.70;;;10.75;;
29700;SDS011;57917;51.380;-0.176;2023-04-23T23:49:25;22.20;;;10.85;;
29700;SDS011;57917;51.380;-0.176;2023-04-23T23:55:14;20.75;;;10.63;;
